createdAt,value
2023-01-13T00:00:27.153Z,99753.45
2023-01-13T00:03:12.022Z,99751.60
2023-01-13T00:05:44.020Z,99751.61
2023-01-13T00:08:15.878Z,99757.07
2023-01-13T00:10:50.297Z,99759.98
2023-01-13T00:13:27.071Z,99748.31
2023-01-13T00:16:04.063Z,99754.85
2023-01-13T00:18:37.690Z,99751.58
2023-01-13T00:21:13.764Z,99744.18
2023-01-13T00:23:45.931Z,99743.85
2023-01-13T00:26:22.199Z,99746.76
2023-01-13T00:28:58.210Z,99740.52
2023-01-13T00:31:31.924Z,99734.59
2023-01-13T00:34:04.999Z,99733.79
2023-01-13T00:36:38.053Z,99736.33
2023-01-13T00:39:12.661Z,99738.81
2023-01-13T00:42:00.236Z,99739.46
2023-01-13T00:44:32.485Z,99738.24
2023-01-13T00:47:04.697Z,99737.09
2023-01-13T00:49:36.252Z,99737.09
2023-01-13T00:52:11.456Z,99733.58
2023-01-13T00:54:46.730Z,99736.16
2023-01-13T00:57:19.331Z,99731.95
2023-01-13T00:59:51.451Z,99728.01
2023-01-13T01:02:24.929Z,99728.76
2023-01-13T01:04:57.659Z,99722.92
2023-01-13T01:07:29.909Z,99727.45
2023-01-13T01:10:02.309Z,99724.33
2023-01-13T01:12:34.507Z,99720.55
2023-01-13T01:15:09.945Z,99720.67
2023-01-13T01:17:42.239Z,99715.39
2023-01-13T01:20:16.358Z,99710.40
2023-01-13T01:22:48.519Z,99703.41
2023-01-13T01:25:21.037Z,99702.29
2023-01-13T01:27:55.941Z,99694.08
2023-01-13T01:30:28.740Z,99695.50
2023-01-13T01:33:00.825Z,99696.10
2023-01-13T01:35:37.435Z,99693.60
2023-01-13T01:38:09.688Z,99693.46
2023-01-13T01:40:41.981Z,99687.29
2023-01-13T01:43:42.108Z,99683.02
2023-01-13T01:46:18.691Z,99680.29
2023-01-13T01:49:07.289Z,99673.09
2023-01-13T01:51:43.814Z,99664.38
2023-01-13T01:54:24.274Z,99672.64
2023-01-13T01:56:58.029Z,99667.55
2023-01-13T01:59:33.500Z,99668.45
2023-01-13T02:02:05.567Z,99664.03
2023-01-13T02:04:40.904Z,99658.94
2023-01-13T02:07:12.865Z,99654.91
2023-01-13T02:09:44.639Z,99650.89
2023-01-13T02:12:32.747Z,99649.70
2023-01-13T02:15:08.882Z,99648.80
2023-01-13T02:17:57.777Z,99648.79
2023-01-13T02:20:54.076Z,99651.24
2023-01-13T02:24:12.163Z,99645.78
2023-01-13T02:27:07.304Z,99644.02
2023-01-13T02:30:26.669Z,99644.33
2023-01-13T02:33:12.700Z,99643.66
2023-01-13T02:35:52.427Z,99644.40
2023-01-13T02:38:30.511Z,99645.29
2023-01-13T02:41:20.830Z,99642.71
2023-01-13T02:44:11.116Z,99640.96
2023-01-13T02:47:00.654Z,99637.84
2023-01-13T02:49:37.637Z,99636.83
2023-01-13T02:52:15.784Z,99636.30
2023-01-13T02:54:52.871Z,99634.98
2023-01-13T02:57:27.407Z,99635.70
2023-01-13T02:59:59.383Z,99633.38
2023-01-13T03:02:32.453Z,99632.36
2023-01-13T03:05:04.501Z,99629.55
2023-01-13T03:08:02.744Z,99631.59
2023-01-13T03:10:47.784Z,99629.61
2023-01-13T03:14:00.894Z,99626.50
2023-01-13T03:16:40.818Z,99622.82
2023-01-13T03:19:24.050Z,99620.97
2023-01-13T03:22:00.950Z,99611.50
2023-01-13T03:24:39.851Z,99619.06
2023-01-13T03:27:17.377Z,99620.40
2023-01-13T03:29:52.433Z,99621.17
2023-01-13T03:32:29.085Z,99622.44
2023-01-13T03:35:06.016Z,99618.71
2023-01-13T03:37:41.092Z,99622.88
2023-01-13T03:40:21.791Z,99619.48
2023-01-13T03:43:16.023Z,99617.78
2023-01-13T03:45:54.656Z,99611.52
2023-01-13T03:48:29.393Z,99610.61
2023-01-13T03:51:02.193Z,99608.11
2023-01-13T03:53:38.933Z,99608.30
2023-01-13T03:56:14.579Z,99604.63
2023-01-13T03:58:49.631Z,99606.44
2023-01-13T04:01:26.539Z,99601.70
2023-01-13T04:04:03.097Z,99597.83
2023-01-13T04:06:42.099Z,99597.36
2023-01-13T04:09:21.005Z,99599.48
2023-01-13T04:11:57.601Z,99599.04
2023-01-13T04:14:30.902Z,99598.33
2023-01-13T04:17:02.556Z,99596.27
2023-01-13T04:19:34.794Z,99595.77
2023-01-13T04:22:06.433Z,99590.10
2023-01-13T04:24:38.573Z,99590.76
2023-01-13T04:27:10.122Z,99591.65
2023-01-13T04:29:41.730Z,99593.54
2023-01-13T04:32:56.398Z,99592.88
2023-01-13T04:36:17.440Z,99586.58
2023-01-13T04:38:48.977Z,99584.46
2023-01-13T04:41:20.585Z,99580.11
2023-01-13T04:43:52.332Z,99582.20
2023-01-13T04:46:24.011Z,99584.11
2023-01-13T04:48:55.447Z,99581.53
2023-01-13T04:51:27.676Z,99587.65
2023-01-13T04:53:59.227Z,99586.92
2023-01-13T04:56:30.682Z,99588.95
2023-01-13T04:59:02.169Z,99592.61
2023-01-13T05:01:33.944Z,99594.06
2023-01-13T05:04:05.482Z,99587.35
2023-01-13T05:06:37.395Z,99586.70
2023-01-13T05:09:09.100Z,99584.61
2023-01-13T05:11:57.703Z,99585.58
2023-01-13T05:14:46.412Z,99587.54
2023-01-13T05:17:22.883Z,99581.67
2023-01-13T05:19:54.538Z,99578.77
2023-01-13T05:22:43.306Z,99579.65
2023-01-13T05:25:25.552Z,99578.30
2023-01-13T05:27:58.512Z,99579.42
2023-01-13T05:30:32.590Z,99579.99
2023-01-13T05:33:04.109Z,99587.49
2023-01-13T05:35:35.560Z,99590.11
2023-01-13T05:38:07.407Z,99595.19
2023-01-13T05:40:56.379Z,99599.60
2023-01-13T05:43:28.866Z,99596.94
2023-01-13T05:46:03.339Z,99595.20
2023-01-13T05:48:36.859Z,99597.52
2023-01-13T05:51:10.959Z,99595.55
2023-01-13T05:53:43.164Z,99599.66
2023-01-13T05:56:14.675Z,99601.20
2023-01-13T05:58:46.498Z,99601.50
2023-01-13T06:01:18.341Z,99600.53
2023-01-13T06:03:49.729Z,99604.61
2023-01-13T06:06:22.236Z,99604.15
2023-01-13T06:08:53.560Z,99607.59
2023-01-13T06:11:25.244Z,99602.91
2023-01-13T06:13:56.901Z,99604.31
2023-01-13T06:16:28.947Z,99610.72
2023-01-13T06:19:00.676Z,99609.59
2023-01-13T06:21:33.315Z,99613.17
2023-01-13T06:24:05.488Z,99611.84
2023-01-13T06:26:40.820Z,99609.19
2023-01-13T06:29:18.184Z,99610.92
2023-01-13T06:31:49.791Z,99610.77
2023-01-13T06:34:21.727Z,99611.50
2023-01-13T06:36:56.068Z,99609.98
2023-01-13T06:39:31.457Z,99608.77
2023-01-13T06:42:22.086Z,99602.14
2023-01-13T06:44:53.756Z,99599.81
2023-01-13T06:47:25.597Z,99597.98
2023-01-13T06:49:57.262Z,99599.14
2023-01-13T06:52:30.906Z,99600.90
2023-01-13T06:55:05.053Z,99601.13
2023-01-13T06:57:36.792Z,99605.44
2023-01-13T07:00:12.973Z,99605.61
2023-01-13T07:02:46.468Z,99607.08
2023-01-13T07:05:19.863Z,99603.86
2023-01-13T07:07:53.046Z,99604.11
2023-01-13T07:10:24.672Z,99611.03
2023-01-13T07:13:13.600Z,99607.77
2023-01-13T07:15:54.035Z,99611.04
2023-01-13T07:18:27.598Z,99611.69
2023-01-13T07:21:02.244Z,99612.70
2023-01-13T07:23:36.151Z,99610.30
2023-01-13T07:26:09.737Z,99612.36
2023-01-13T07:28:42.700Z,99611.75
2023-01-13T07:31:19.071Z,99612.08
2023-01-13T07:33:50.944Z,99610.11
2023-01-13T07:36:22.465Z,99609.08
2023-01-13T07:38:54.896Z,99607.92
2023-01-13T07:41:44.108Z,99606.14
2023-01-13T07:44:15.525Z,99606.05
2023-01-13T07:46:47.118Z,99603.62
2023-01-13T07:49:20.326Z,99602.89
2023-01-13T07:51:53.310Z,99601.85
2023-01-13T07:54:35.093Z,99607.58
2023-01-13T07:57:11.026Z,99608.13
2023-01-13T07:59:42.396Z,99607.19
2023-01-13T08:02:16.196Z,99604.33
2023-01-13T08:04:47.983Z,99604.30
2023-01-13T08:07:19.620Z,99606.14
2023-01-13T08:09:51.805Z,99603.70
2023-01-13T08:12:53.038Z,99609.50
2023-01-13T08:15:30.001Z,99610.21
2023-01-13T08:18:01.525Z,99609.06
2023-01-13T08:20:33.027Z,99608.33
2023-01-13T08:23:07.021Z,99612.58
2023-01-13T08:25:38.877Z,99615.42
2023-01-13T08:28:10.616Z,99613.86
2023-01-13T08:30:42.384Z,99617.31
2023-01-13T08:33:14.597Z,99616.52
2023-01-13T08:35:46.136Z,99619.84
2023-01-13T08:38:17.522Z,99621.77
2023-01-13T08:40:49.920Z,99623.60
2023-01-13T08:43:22.136Z,99623.11
2023-01-13T08:46:02.011Z,99628.36
2023-01-13T08:48:33.814Z,99628.15
2023-01-13T08:51:10.734Z,99626.39
2023-01-13T08:53:42.148Z,99626.08
2023-01-13T08:56:15.188Z,99628.17
2023-01-13T08:58:47.680Z,99629.40
2023-01-13T09:01:23.875Z,99625.52
2023-01-13T09:03:56.393Z,99625.60
2023-01-13T09:06:27.963Z,99623.92
2023-01-13T09:08:59.517Z,99625.81
2023-01-13T09:11:51.622Z,99623.58
2023-01-13T09:14:25.241Z,99624.92
2023-01-13T09:16:56.888Z,99623.50
2023-01-13T09:19:29.181Z,99621.11
2023-01-13T09:22:00.802Z,99618.55
2023-01-13T09:24:33.228Z,99618.02
2023-01-13T09:27:04.676Z,99616.58
2023-01-13T09:29:36.487Z,99615.02
2023-01-13T09:32:08.853Z,99617.84
2023-01-13T09:34:57.817Z,99612.29
2023-01-13T09:37:30.415Z,99609.02
2023-01-13T09:40:02.023Z,99609.59
2023-01-13T09:42:59.293Z,99606.16
2023-01-13T09:45:34.725Z,99601.98
2023-01-13T09:48:14.685Z,99599.10
2023-01-13T09:50:58.698Z,99596.38
2023-01-13T09:53:33.839Z,99600.39
2023-01-13T09:56:05.824Z,99599.02
2023-01-13T09:58:37.312Z,99594.27
2023-01-13T10:01:24.317Z,99600.23
2023-01-13T10:03:56.244Z,99592.83
2023-01-13T10:06:36.396Z,99596.25
2023-01-13T10:09:07.852Z,99597.67
2023-01-13T10:12:01.349Z,99594.46
2023-01-13T10:14:40.335Z,99593.02
2023-01-13T10:17:22.630Z,99589.34
2023-01-13T10:19:59.142Z,99589.65
2023-01-13T10:22:48.823Z,99587.19
2023-01-13T10:25:36.869Z,99587.21
2023-01-13T10:28:12.949Z,99588.38
2023-01-13T10:30:45.900Z,99587.55
2023-01-13T10:33:20.881Z,99588.13
2023-01-13T10:36:03.926Z,99585.86
2023-01-13T10:38:41.493Z,99583.35
2023-01-13T10:41:24.755Z,99582.33
2023-01-13T10:44:09.336Z,99581.13
2023-01-13T10:46:55.544Z,99578.86
2023-01-13T10:49:37.821Z,99573.44
2023-01-13T10:52:31.583Z,99573.30
2023-01-13T10:55:02.895Z,99571.52
2023-01-13T10:57:39.009Z,99568.00
2023-01-13T11:00:29.992Z,99570.04
2023-01-13T11:03:18.998Z,99569.31
2023-01-13T11:05:55.533Z,99569.65
2023-01-13T11:08:29.231Z,99563.11
2023-01-13T11:11:01.773Z,99562.67
2023-01-13T11:13:37.350Z,99559.98
2023-01-13T11:16:14.089Z,99562.87
2023-01-13T11:19:02.795Z,99558.38
2023-01-13T11:21:40.970Z,99559.60
2023-01-13T11:24:22.338Z,99558.30
2023-01-13T11:27:00.721Z,99554.71
2023-01-13T11:29:39.894Z,99552.58
2023-01-13T11:32:13.830Z,99553.41
2023-01-13T11:34:52.666Z,99549.90
2023-01-13T11:37:28.002Z,99547.77
2023-01-13T11:40:06.578Z,99545.79
2023-01-13T11:42:43.331Z,99543.48
2023-01-13T11:45:23.604Z,99545.98
2023-01-13T11:47:59.711Z,99543.41
2023-01-13T11:50:38.647Z,99544.36
2023-01-13T11:53:21.856Z,99543.59
2023-01-13T11:56:06.936Z,99542.21
2023-01-13T11:58:50.927Z,99538.10
2023-01-13T12:01:45.838Z,99536.42
2023-01-13T12:04:29.069Z,99533.67
2023-01-13T12:07:21.418Z,99527.79
2023-01-13T12:10:08.943Z,99529.02
2023-01-13T12:12:52.771Z,99531.34
2023-01-13T12:15:58.123Z,99531.79
2023-01-13T12:18:42.256Z,99533.61
2023-01-13T12:21:24.989Z,99527.44
2023-01-13T12:24:07.705Z,99532.61
2023-01-13T12:26:44.289Z,99530.54
2023-01-13T12:29:19.783Z,99526.90
2023-01-13T12:31:52.874Z,99523.40
2023-01-13T12:34:43.590Z,99522.83
2023-01-13T12:37:24.084Z,99526.57
2023-01-13T12:40:05.744Z,99526.95
2023-01-13T12:43:05.813Z,99527.55
2023-01-13T12:45:37.589Z,99538.09
2023-01-13T12:48:35.518Z,99534.66
2023-01-13T12:51:22.608Z,99535.06
2023-01-13T12:53:55.537Z,99533.43
2023-01-13T12:56:36.728Z,99535.64
2023-01-13T12:59:39.508Z,99538.83
2023-01-13T13:02:38.745Z,99538.44
2023-01-13T13:05:46.283Z,99536.96
2023-01-13T13:08:23.746Z,99539.91
2023-01-13T13:11:33.655Z,99542.98
2023-01-13T13:14:06.911Z,99544.23
2023-01-13T13:16:56.055Z,99542.05
2023-01-13T13:19:45.414Z,99545.97
2023-01-13T13:22:45.199Z,99546.85
2023-01-13T13:25:36.109Z,99548.90
2023-01-13T13:28:24.266Z,99551.49
2023-01-13T13:31:12.616Z,99550.54
2023-01-13T13:33:56.370Z,99547.08
2023-01-13T13:37:10.205Z,99545.78
2023-01-13T13:40:03.526Z,99533.56
2023-01-13T13:43:01.359Z,99536.43
2023-01-13T13:45:50.573Z,99541.95
2023-01-13T13:48:28.830Z,99539.78
2023-01-13T13:51:04.035Z,99537.05
2023-01-13T13:53:38.815Z,99536.27
2023-01-13T13:56:17.294Z,99538.02
2023-01-13T13:58:50.820Z,99540.09
2023-01-13T14:01:28.169Z,99541.28
2023-01-13T14:04:15.672Z,99544.17
2023-01-13T14:07:04.704Z,99546.89
2023-01-13T14:09:46.668Z,99545.64
2023-01-13T14:12:23.408Z,99548.66
2023-01-13T14:14:57.832Z,99548.62
2023-01-13T14:17:31.426Z,99548.96
2023-01-13T14:20:06.122Z,99547.62
2023-01-13T14:22:35.815Z,99546.91
2023-01-13T14:25:37.373Z,99550.08
2023-01-13T14:28:22.508Z,99547.59
2023-01-13T14:30:53.040Z,99556.05
2023-01-13T14:33:34.192Z,99557.98
2023-01-13T14:36:16.639Z,99553.11
2023-01-13T14:38:50.207Z,99556.42
2023-01-13T14:41:29.550Z,99557.45
2023-01-13T14:44:03.088Z,99556.77
2023-01-13T14:46:50.568Z,99557.73
2023-01-13T14:49:30.277Z,99561.64
2023-01-13T14:52:12.977Z,99560.08
2023-01-13T14:54:51.168Z,99562.05
2023-01-13T14:57:32.642Z,99558.92
2023-01-13T15:00:19.440Z,99560.94
2023-01-13T15:03:01.616Z,99562.59
2023-01-13T15:05:47.823Z,99561.21
2023-01-13T15:08:47.657Z,99564.08
2023-01-13T15:11:28.151Z,99562.50
2023-01-13T15:14:02.962Z,99564.46
2023-01-13T15:16:34.969Z,99560.71
2023-01-13T15:19:06.765Z,99559.87
2023-01-13T15:21:39.046Z,99556.77
2023-01-13T15:24:10.746Z,99556.49
2023-01-13T15:26:42.517Z,99557.81
2023-01-13T15:29:17.075Z,99554.76
2023-01-13T15:31:48.575Z,99556.47
2023-01-13T15:34:19.876Z,99562.98
2023-01-13T15:36:51.933Z,99562.89
2023-01-13T15:39:23.488Z,99563.86
2023-01-13T15:42:12.327Z,99569.31
2023-01-13T15:45:01.829Z,99567.08
2023-01-13T15:47:33.629Z,99565.90
2023-01-13T15:50:06.182Z,99565.30
2023-01-13T15:52:38.502Z,99565.77
2023-01-13T15:55:11.530Z,99569.46
2023-01-13T15:57:47.981Z,99569.79
2023-01-13T16:00:23.939Z,99569.99
2023-01-13T16:02:55.648Z,99571.48
2023-01-13T16:05:27.406Z,99572.47
2023-01-13T16:07:58.895Z,99572.39
2023-01-13T16:10:31.457Z,99566.66
2023-01-13T16:13:03.765Z,99569.52
2023-01-13T16:15:36.228Z,99572.61
2023-01-13T16:18:08.983Z,99570.57
2023-01-13T16:20:40.797Z,99572.75
2023-01-13T16:23:12.834Z,99572.10
2023-01-13T16:25:46.964Z,99573.20
2023-01-13T16:28:25.030Z,99581.14
2023-01-13T16:30:57.561Z,99581.70
2023-01-13T16:33:29.341Z,99585.66
2023-01-13T16:36:10.865Z,99584.53
2023-01-13T16:38:44.357Z,99585.52
2023-01-13T16:41:16.280Z,99589.01
2023-01-13T16:43:48.327Z,99586.63
2023-01-13T16:46:24.803Z,99585.34
2023-01-13T16:48:58.535Z,99589.79
2023-01-13T16:51:30.152Z,99595.52
2023-01-13T16:54:02.856Z,99600.61
2023-01-13T16:56:36.027Z,99599.77
2023-01-13T16:59:10.669Z,99605.42
2023-01-13T17:01:46.460Z,99599.10
2023-01-13T17:04:20.958Z,99604.86
2023-01-13T17:07:00.594Z,99597.66
2023-01-13T17:09:33.489Z,99597.77
2023-01-13T17:12:05.926Z,99596.50
2023-01-13T17:14:38.248Z,99598.08
2023-01-13T17:17:15.814Z,99595.05
2023-01-13T17:19:47.599Z,99595.79
2023-01-13T17:22:20.225Z,99599.24
2023-01-13T17:24:52.941Z,99598.02
2023-01-13T17:27:27.028Z,99603.90
2023-01-13T17:29:59.005Z,99604.98
2023-01-13T17:32:30.861Z,99605.60
2023-01-13T17:35:03.823Z,99603.45
2023-01-13T17:37:36.295Z,99601.37
2023-01-13T17:40:11.703Z,99602.36
2023-01-13T17:43:01.041Z,99602.23
2023-01-13T17:45:34.055Z,99599.40
2023-01-13T17:48:21.051Z,99601.15
2023-01-13T17:50:53.684Z,99604.10
2023-01-13T17:53:47.364Z,99606.59
2023-01-13T17:56:46.666Z,99611.93
2023-01-13T17:59:21.431Z,99611.20
2023-01-13T18:01:52.652Z,99615.59
2023-01-13T18:04:29.247Z,99616.47
2023-01-13T18:07:01.419Z,99612.39
2023-01-13T18:09:36.454Z,99612.87
2023-01-13T18:12:11.929Z,99616.61
2023-01-13T18:14:45.504Z,99613.21
2023-01-13T18:17:19.222Z,99614.52
2023-01-13T18:20:09.154Z,99615.90
2023-01-13T18:22:59.961Z,99618.94
2023-01-13T18:25:49.014Z,99618.49
2023-01-13T18:28:21.121Z,99627.54
2023-01-13T18:30:54.372Z,99625.75
2023-01-13T18:33:30.999Z,99630.27
2023-01-13T18:36:11.268Z,99631.75
2023-01-13T18:38:45.461Z,99631.27
2023-01-13T18:41:31.568Z,99636.33
2023-01-13T18:44:04.401Z,99641.14
2023-01-13T18:46:37.050Z,99643.66
2023-01-13T18:49:10.455Z,99646.20
2023-01-13T18:51:42.160Z,99650.23
2023-01-13T18:54:14.697Z,99649.58
2023-01-13T18:56:54.007Z,99647.03
2023-01-13T18:59:32.096Z,99651.38
2023-01-13T19:02:19.055Z,99654.94
2023-01-13T19:04:51.134Z,99655.35
2023-01-13T19:07:29.572Z,99655.88
2023-01-13T19:10:02.280Z,99655.91
2023-01-13T19:12:34.487Z,99659.52
2023-01-13T19:15:15.349Z,99662.95
2023-01-13T19:17:49.761Z,99671.20
2023-01-13T19:20:35.968Z,99674.78
2023-01-13T19:23:41.523Z,99668.18
2023-01-13T19:26:14.809Z,99677.21
2023-01-13T19:32:12.762Z,99687.84
2023-01-13T19:32:36.284Z,99684.48
2023-01-13T19:34:52.344Z,99688.01
2023-01-13T19:37:46.083Z,99681.32
2023-01-13T19:40:30.796Z,99689.84
2023-01-13T19:43:19.779Z,99691.69
2023-01-13T19:45:59.842Z,99691.08
2023-01-13T19:48:35.550Z,99697.95
2023-01-13T19:51:27.915Z,99701.89
2023-01-13T19:54:06.047Z,99704.02
2023-01-13T19:56:40.771Z,99711.30
2023-01-13T19:59:12.487Z,99715.76
2023-01-13T20:01:48.889Z,99718.45
2023-01-13T20:04:27.748Z,99714.58
2023-01-13T20:07:09.524Z,99720.68
2023-01-13T20:09:47.042Z,99721.61
2023-01-13T20:12:22.704Z,99723.27
2023-01-13T20:14:55.693Z,99727.90
2023-01-13T20:17:34.437Z,99732.00
2023-01-13T20:20:09.327Z,99738.00
2023-01-13T20:22:48.872Z,99742.70
2023-01-13T20:25:27.483Z,99741.77
2023-01-13T20:28:02.704Z,99746.92
2023-01-13T20:30:35.942Z,99750.79
2023-01-13T20:33:08.275Z,99752.16
2023-01-13T20:35:42.265Z,99759.62
2023-01-13T20:38:20.951Z,99757.26
2023-01-13T20:41:37.920Z,99754.23
2023-01-13T20:44:16.486Z,99765.05
2023-01-13T20:47:16.650Z,99768.96
2023-01-13T20:49:58.801Z,99773.73
2023-01-13T20:52:41.272Z,99773.40
2023-01-13T20:55:19.957Z,99775.59
2023-01-13T20:58:02.731Z,99782.53
2023-01-13T21:00:53.649Z,99784.00
2023-01-13T21:03:50.655Z,99781.29
2023-01-13T21:06:35.383Z,99786.09
2023-01-13T21:09:27.981Z,99791.89
2023-01-13T21:12:21.258Z,99793.06
2023-01-13T21:15:10.818Z,99788.77
2023-01-13T21:18:02.721Z,99788.92
2023-01-13T21:20:39.237Z,99783.09
2023-01-13T21:23:21.090Z,99784.70
2023-01-13T21:25:52.799Z,99784.79
2023-01-13T21:28:24.355Z,99788.63
2023-01-13T21:30:56.199Z,99792.80
2023-01-13T21:33:27.982Z,99797.48
2023-01-13T21:35:59.670Z,99800.64
2023-01-13T21:38:31.205Z,99803.48
2023-01-13T21:41:05.912Z,99802.32
2023-01-13T21:43:53.398Z,99801.54
2023-01-13T21:46:42.816Z,99801.52
2023-01-13T21:49:14.421Z,99801.90
2023-01-13T21:51:45.881Z,99799.80
2023-01-13T21:54:17.335Z,99802.06
2023-01-13T21:56:50.732Z,99800.70
2023-01-13T21:59:24.166Z,99798.30
2023-01-13T22:02:24.512Z,99798.48
2023-01-13T22:04:56.831Z,99798.81
2023-01-13T22:07:29.105Z,99803.61
2023-01-13T22:10:00.681Z,99812.08
2023-01-13T22:12:33.100Z,99812.54
2023-01-13T22:15:04.973Z,99815.06
2023-01-13T22:17:36.592Z,99814.27
2023-01-13T22:20:10.398Z,99814.90
2023-01-13T22:22:42.718Z,99814.92
2023-01-13T22:25:17.341Z,99815.66
2023-01-13T22:27:49.554Z,99820.48
2023-01-13T22:30:22.571Z,99819.42
2023-01-13T22:32:54.115Z,99825.48
2023-01-13T22:35:25.850Z,99825.20
2023-01-13T22:37:57.353Z,99829.15
2023-01-13T22:40:28.852Z,99831.75
2023-01-13T22:43:00.382Z,99834.75
2023-01-13T22:45:32.918Z,99838.60
2023-01-13T22:48:04.487Z,99841.25
2023-01-13T22:50:36.256Z,99845.13
2023-01-13T22:53:07.862Z,99845.80
2023-01-13T22:55:39.395Z,99848.79
2023-01-13T22:58:10.873Z,99849.16
2023-01-13T23:00:43.242Z,99853.77
2023-01-13T23:03:18.866Z,99855.83
2023-01-13T23:05:56.942Z,99860.17
2023-01-13T23:08:28.399Z,99859.11
2023-01-13T23:11:05.930Z,99861.48
2023-01-13T23:13:39.621Z,99863.70
2023-01-13T23:16:14.925Z,99869.58
2023-01-13T23:18:48.340Z,99866.55
2023-01-13T23:21:22.469Z,99869.98
2023-01-13T23:23:54.088Z,99870.72
2023-01-13T23:26:25.558Z,99868.81
2023-01-13T23:28:59.094Z,99871.20
2023-01-13T23:31:30.705Z,99872.46
2023-01-13T23:34:02.493Z,99878.25
2023-01-13T23:36:37.189Z,99880.15
2023-01-13T23:39:09.970Z,99878.94
2023-01-13T23:41:42.357Z,99877.19
2023-01-13T23:44:13.788Z,99880.05
2023-01-13T23:46:45.501Z,99874.92
2023-01-13T23:49:17.149Z,99879.64
2023-01-13T23:51:50.901Z,99880.14
2023-01-13T23:54:22.341Z,99881.64
2023-01-13T23:56:54.047Z,99878.64
2023-01-13T23:59:25.663Z,99877.83
